sensor_id;sensor_type;location;lat;lon;timestamp;temperature;humidity
20759;DHT22;10539;53.686;9.158;2023-03-01T00:02:07;3.90;99.90
20759;DHT22;10539;53.686;9.158;2023-03-01T00:04:32;3.80;99.90
20759;DHT22;10539;53.686;9.158;2023-03-01T00:06:58;3.80;99.90
20759;DHT22;10539;53.686;9.158;2023-03-01T00:09:24;3.80;99.90
20759;DHT22;10539;53.686;9.158;2023-03-01T00:11:50;3.70;99.90
20759;DHT22;10539;53.686;9.158;2023-03-01T00:14:15;3.70;99.90
20759;DHT22;10539;53.686;9.158;2023-03-01T00:16:45;3.70;99.90
20759;DHT22;10539;53.686;9.158;2023-03-01T00:19:13;3.70;99.90
20759;DHT22;10539;53.686;9.158;2023-03-01T00:21:39;3.70;99.90
20759;DHT22;10539;53.686;9.158;2023-03-01T00:24:05;3.70;99.90
20759;DHT22;10539;53.686;9.158;2023-03-01T00:26:31;3.70;99.90
20759;DHT22;10539;53.686;9.158;2023-03-01T00:28:58;3.70;99.90
20759;DHT22;10539;53.686;9.158;2023-03-01T00:31:26;3.60;99.90
20759;DHT22;10539;53.686;9.158;2023-03-01T00:33:54;3.50;99.90
20759;DHT22;10539;53.686;9.158;2023-03-01T00:36:31;3.50;99.90
20759;DHT22;10539;53.686;9.158;2023-03-01T00:38:57;3.50;99.90
20759;DHT22;10539;53.686;9.158;2023-03-01T00:41:24;3.40;99.90
20759;DHT22;10539;53.686;9.158;2023-03-01T00:43:52;3.40;99.90
20759;DHT22;10539;53.686;9.158;2023-03-01T00:46:21;3.40;99.90
20759;DHT22;10539;53.686;9.158;2023-03-01T00:48:47;3.40;99.90
20759;DHT22;10539;53.686;9.158;2023-03-01T00:51:15;3.40;99.90
20759;DHT22;10539;53.686;9.158;2023-03-01T00:53:42;3.40;99.90
20759;DHT22;10539;53.686;9.158;2023-03-01T00:56:09;3.40;99.90
20759;DHT22;10539;53.686;9.158;2023-03-01T00:58:36;3.40;99.90
20759;DHT22;10539;53.686;9.158;2023-03-01T01:01:15;3.40;99.90
20759;DHT22;10539;53.686;9.158;2023-03-01T01:03:52;3.30;99.90
20759;DHT22;10539;53.686;9.158;2023-03-01T01:06:23;3.30;99.90
20759;DHT22;10539;53.686;9.158;2023-03-01T01:08:50;3.30;99.90
20759;DHT22;10539;53.686;9.158;2023-03-01T01:11:16;3.30;99.90
20759;DHT22;10539;53.686;9.158;2023-03-01T01:13:45;3.40;99.90
20759;DHT22;10539;53.686;9.158;2023-03-01T01:16:12;3.40;99.90
20759;DHT22;10539;53.686;9.158;2023-03-01T01:18:38;3.40;99.90
20759;DHT22;10539;53.686;9.158;2023-03-01T01:21:12;3.40;99.90
20759;DHT22;10539;53.686;9.158;2023-03-01T01:23:39;3.40;99.90
20759;DHT22;10539;53.686;9.158;2023-03-01T01:26:11;3.40;99.90
20759;DHT22;10539;53.686;9.158;2023-03-01T01:28:37;3.30;99.90
20759;DHT22;10539;53.686;9.158;2023-03-01T01:31:04;3.30;99.90
20759;DHT22;10539;53.686;9.158;2023-03-01T01:33:30;3.30;99.90
20759;DHT22;10539;53.686;9.158;2023-03-01T01:35:55;3.30;99.90
20759;DHT22;10539;53.686;9.158;2023-03-01T01:38:23;3.30;99.90
20759;DHT22;10539;53.686;9.158;2023-03-01T01:40:50;3.30;99.90
20759;DHT22;10539;53.686;9.158;2023-03-01T01:44:33;3.30;99.90
20759;DHT22;10539;53.686;9.158;2023-03-01T01:46:37;3.20;99.90
20759;DHT22;10539;53.686;9.158;2023-03-01T01:49:07;3.20;99.90
20759;DHT22;10539;53.686;9.158;2023-03-01T01:51:40;3.20;99.90
20759;DHT22;10539;53.686;9.158;2023-03-01T01:54:19;3.30;99.90
20759;DHT22;10539;53.686;9.158;2023-03-01T01:57:00;3.20;99.90
20759;DHT22;10539;53.686;9.158;2023-03-01T01:59:28;3.20;99.90
20759;DHT22;10539;53.686;9.158;2023-03-01T02:01:58;3.10;99.90
20759;DHT22;10539;53.686;9.158;2023-03-01T02:04:24;3.20;99.90
20759;DHT22;10539;53.686;9.158;2023-03-01T02:09:26;3.20;99.90
20759;DHT22;10539;53.686;9.158;2023-03-01T02:11:53;3.20;99.90
20759;DHT22;10539;53.686;9.158;2023-03-01T02:14:19;3.20;99.90
20759;DHT22;10539;53.686;9.158;2023-03-01T02:16:46;3.10;99.90
20759;DHT22;10539;53.686;9.158;2023-03-01T02:22:33;3.10;99.90
20759;DHT22;10539;53.686;9.158;2023-03-01T02:25:52;3.00;99.90
20759;DHT22;10539;53.686;9.158;2023-03-01T02:28:40;3.00;99.90
20759;DHT22;10539;53.686;9.158;2023-03-01T02:31:07;2.90;99.90
20759;DHT22;10539;53.686;9.158;2023-03-01T02:33:53;2.90;99.90
20759;DHT22;10539;53.686;9.158;2023-03-01T02:36:24;2.90;99.90
20759;DHT22;10539;53.686;9.158;2023-03-01T02:38:54;2.90;99.90
20759;DHT22;10539;53.686;9.158;2023-03-01T02:41:22;2.90;99.90
20759;DHT22;10539;53.686;9.158;2023-03-01T02:43:48;2.90;99.90
20759;DHT22;10539;53.686;9.158;2023-03-01T02:46:25;2.90;99.90
20759;DHT22;10539;53.686;9.158;2023-03-01T02:48:53;2.80;99.90
20759;DHT22;10539;53.686;9.158;2023-03-01T02:51:31;2.80;99.90
20759;DHT22;10539;53.686;9.158;2023-03-01T02:54:21;2.80;99.90
20759;DHT22;10539;53.686;9.158;2023-03-01T02:56:49;2.80;99.90
20759;DHT22;10539;53.686;9.158;2023-03-01T02:59:19;2.70;99.90
20759;DHT22;10539;53.686;9.158;2023-03-01T03:01:45;2.70;99.90
20759;DHT22;10539;53.686;9.158;2023-03-01T03:04:14;2.70;99.90
20759;DHT22;10539;53.686;9.158;2023-03-01T03:06:44;2.70;99.90
20759;DHT22;10539;53.686;9.158;2023-03-01T03:09:10;2.70;99.90
20759;DHT22;10539;53.686;9.158;2023-03-01T03:11:36;2.70;99.90
20759;DHT22;10539;53.686;9.158;2023-03-01T03:14:04;2.60;99.90
20759;DHT22;10539;53.686;9.158;2023-03-01T03:16:30;2.60;99.90
20759;DHT22;10539;53.686;9.158;2023-03-01T03:18:56;2.60;99.90
20759;DHT22;10539;53.686;9.158;2023-03-01T03:21:33;2.60;99.90
20759;DHT22;10539;53.686;9.158;2023-03-01T03:23:59;2.50;99.90
20759;DHT22;10539;53.686;9.158;2023-03-01T03:26:25;2.50;99.90
20759;DHT22;10539;53.686;9.158;2023-03-01T03:28:52;2.40;99.90
20759;DHT22;10539;53.686;9.158;2023-03-01T03:31:17;2.40;99.90
20759;DHT22;10539;53.686;9.158;2023-03-01T03:33:43;2.30;99.90
20759;DHT22;10539;53.686;9.158;2023-03-01T03:36:09;2.30;99.90
20759;DHT22;10539;53.686;9.158;2023-03-01T03:38:39;2.30;99.90
20759;DHT22;10539;53.686;9.158;2023-03-01T03:41:07;2.30;99.90
20759;DHT22;10539;53.686;9.158;2023-03-01T03:43:35;2.30;99.90
20759;DHT22;10539;53.686;9.158;2023-03-01T03:46:03;2.30;99.90
20759;DHT22;10539;53.686;9.158;2023-03-01T03:48:33;2.20;99.90
20759;DHT22;10539;53.686;9.158;2023-03-01T03:51:00;2.20;99.90
20759;DHT22;10539;53.686;9.158;2023-03-01T03:53:27;2.30;99.90
20759;DHT22;10539;53.686;9.158;2023-03-01T03:55:53;2.30;99.90
20759;DHT22;10539;53.686;9.158;2023-03-01T03:58:21;2.30;99.90
20759;DHT22;10539;53.686;9.158;2023-03-01T04:00:50;2.40;99.90
20759;DHT22;10539;53.686;9.158;2023-03-01T04:03:17;2.40;99.90
20759;DHT22;10539;53.686;9.158;2023-03-01T04:05:44;2.30;99.90
20759;DHT22;10539;53.686;9.158;2023-03-01T04:08:10;2.30;99.90
20759;DHT22;10539;53.686;9.158;2023-03-01T04:13:05;2.20;99.90
20759;DHT22;10539;53.686;9.158;2023-03-01T04:15:31;2.20;99.90
20759;DHT22;10539;53.686;9.158;2023-03-01T04:17:58;2.20;99.90
20759;DHT22;10539;53.686;9.158;2023-03-01T04:20:27;2.20;99.90
20759;DHT22;10539;53.686;9.158;2023-03-01T04:23:08;2.20;99.90
20759;DHT22;10539;53.686;9.158;2023-03-01T04:25:57;2.20;99.90
20759;DHT22;10539;53.686;9.158;2023-03-01T04:28:32;2.20;99.90
20759;DHT22;10539;53.686;9.158;2023-03-01T04:31:04;2.20;99.90
20759;DHT22;10539;53.686;9.158;2023-03-01T04:33:43;2.10;99.90
20759;DHT22;10539;53.686;9.158;2023-03-01T04:36:10;2.10;99.90
20759;DHT22;10539;53.686;9.158;2023-03-01T04:38:37;2.10;99.90
20759;DHT22;10539;53.686;9.158;2023-03-01T04:41:08;2.00;99.90
20759;DHT22;10539;53.686;9.158;2023-03-01T04:43:35;2.10;99.90
20759;DHT22;10539;53.686;9.158;2023-03-01T04:46:06;2.10;99.90
20759;DHT22;10539;53.686;9.158;2023-03-01T04:48:35;2.00;99.90
20759;DHT22;10539;53.686;9.158;2023-03-01T04:51:02;2.00;99.90
20759;DHT22;10539;53.686;9.158;2023-03-01T04:53:28;2.00;99.90
20759;DHT22;10539;53.686;9.158;2023-03-01T04:55:55;2.00;99.90
20759;DHT22;10539;53.686;9.158;2023-03-01T04:58:23;2.00;99.90
20759;DHT22;10539;53.686;9.158;2023-03-01T05:00:49;2.00;99.90
20759;DHT22;10539;53.686;9.158;2023-03-01T05:03:15;1.90;99.90
20759;DHT22;10539;53.686;9.158;2023-03-01T05:05:45;1.90;99.90
20759;DHT22;10539;53.686;9.158;2023-03-01T05:08:11;1.90;99.90
20759;DHT22;10539;53.686;9.158;2023-03-01T05:10:45;1.90;99.90
20759;DHT22;10539;53.686;9.158;2023-03-01T05:13:12;1.80;99.90
20759;DHT22;10539;53.686;9.158;2023-03-01T05:15:39;1.80;99.90
20759;DHT22;10539;53.686;9.158;2023-03-01T05:18:05;1.70;99.90
20759;DHT22;10539;53.686;9.158;2023-03-01T05:20:37;1.60;99.90
20759;DHT22;10539;53.686;9.158;2023-03-01T05:23:03;1.50;99.90
20759;DHT22;10539;53.686;9.158;2023-03-01T05:25:31;1.40;99.90
20759;DHT22;10539;53.686;9.158;2023-03-01T05:28:02;1.30;99.90
20759;DHT22;10539;53.686;9.158;2023-03-01T05:30:33;1.30;99.90
20759;DHT22;10539;53.686;9.158;2023-03-01T05:32:59;1.20;99.90
20759;DHT22;10539;53.686;9.158;2023-03-01T05:35:26;1.10;99.90
20759;DHT22;10539;53.686;9.158;2023-03-01T05:37:51;1.10;99.90
20759;DHT22;10539;53.686;9.158;2023-03-01T05:40:22;1.10;99.90
20759;DHT22;10539;53.686;9.158;2023-03-01T05:42:54;1.10;99.90
20759;DHT22;10539;53.686;9.158;2023-03-01T05:45:21;1.20;99.90
20759;DHT22;10539;53.686;9.158;2023-03-01T05:47:48;1.20;99.90
20759;DHT22;10539;53.686;9.158;2023-03-01T05:50:19;1.10;99.90
20759;DHT22;10539;53.686;9.158;2023-03-01T05:52:51;1.10;99.90
20759;DHT22;10539;53.686;9.158;2023-03-01T05:55:18;1.20;99.90
20759;DHT22;10539;53.686;9.158;2023-03-01T05:57:45;1.20;99.90
20759;DHT22;10539;53.686;9.158;2023-03-01T06:00:12;1.20;99.90
20759;DHT22;10539;53.686;9.158;2023-03-01T06:02:39;1.30;99.90
20759;DHT22;10539;53.686;9.158;2023-03-01T06:05:07;1.40;99.90
20759;DHT22;10539;53.686;9.158;2023-03-01T06:07:33;1.50;99.90
20759;DHT22;10539;53.686;9.158;2023-03-01T06:09:59;1.50;99.90
20759;DHT22;10539;53.686;9.158;2023-03-01T06:12:24;1.60;99.90
20759;DHT22;10539;53.686;9.158;2023-03-01T06:14:50;1.60;99.90
20759;DHT22;10539;53.686;9.158;2023-03-01T06:17:16;1.70;99.90
20759;DHT22;10539;53.686;9.158;2023-03-01T06:19:42;1.80;99.90
20759;DHT22;10539;53.686;9.158;2023-03-01T06:22:08;1.80;99.90
20759;DHT22;10539;53.686;9.158;2023-03-01T06:24:34;1.90;99.90
20759;DHT22;10539;53.686;9.158;2023-03-01T06:27:00;2.00;99.90
20759;DHT22;10539;53.686;9.158;2023-03-01T06:29:25;2.00;99.90
20759;DHT22;10539;53.686;9.158;2023-03-01T06:31:51;2.00;99.90
20759;DHT22;10539;53.686;9.158;2023-03-01T06:34:17;2.00;99.90
20759;DHT22;10539;53.686;9.158;2023-03-01T06:36:42;2.10;99.90
20759;DHT22;10539;53.686;9.158;2023-03-01T06:39:08;2.10;99.90
20759;DHT22;10539;53.686;9.158;2023-03-01T06:41:34;2.10;99.90
20759;DHT22;10539;53.686;9.158;2023-03-01T06:44:00;2.20;99.90
20759;DHT22;10539;53.686;9.158;2023-03-01T06:46:26;2.20;99.90
20759;DHT22;10539;53.686;9.158;2023-03-01T06:48:52;2.30;99.90
20759;DHT22;10539;53.686;9.158;2023-03-01T06:51:17;2.30;99.90
20759;DHT22;10539;53.686;9.158;2023-03-01T06:53:45;2.40;99.90
20759;DHT22;10539;53.686;9.158;2023-03-01T06:56:10;2.30;99.90
20759;DHT22;10539;53.686;9.158;2023-03-01T06:58:36;2.40;99.90
20759;DHT22;10539;53.686;9.158;2023-03-01T07:01:08;2.40;99.90
20759;DHT22;10539;53.686;9.158;2023-03-01T07:03:34;2.50;99.90
20759;DHT22;10539;53.686;9.158;2023-03-01T07:06:00;2.50;99.90
20759;DHT22;10539;53.686;9.158;2023-03-01T07:08:26;2.50;99.90
20759;DHT22;10539;53.686;9.158;2023-03-01T07:10:58;2.50;99.90
20759;DHT22;10539;53.686;9.158;2023-03-01T07:13:24;2.60;99.90
20759;DHT22;10539;53.686;9.158;2023-03-01T07:15:50;2.60;99.90
20759;DHT22;10539;53.686;9.158;2023-03-01T07:18:16;2.60;99.90
20759;DHT22;10539;53.686;9.158;2023-03-01T07:20:41;2.60;99.90
20759;DHT22;10539;53.686;9.158;2023-03-01T07:23:07;2.70;99.90
20759;DHT22;10539;53.686;9.158;2023-03-01T07:25:33;2.70;99.90
20759;DHT22;10539;53.686;9.158;2023-03-01T07:27:59;2.80;99.90
20759;DHT22;10539;53.686;9.158;2023-03-01T07:30:25;2.80;99.90
20759;DHT22;10539;53.686;9.158;2023-03-01T07:32:53;2.80;99.90
20759;DHT22;10539;53.686;9.158;2023-03-01T07:35:19;2.90;99.90
20759;DHT22;10539;53.686;9.158;2023-03-01T07:37:44;2.90;99.90
20759;DHT22;10539;53.686;9.158;2023-03-01T07:40:11;3.00;99.90
20759;DHT22;10539;53.686;9.158;2023-03-01T07:42:37;3.10;99.90
20759;DHT22;10539;53.686;9.158;2023-03-01T07:45:04;3.10;99.90
20759;DHT22;10539;53.686;9.158;2023-03-01T07:47:30;3.20;99.90
20759;DHT22;10539;53.686;9.158;2023-03-01T07:49:56;3.20;99.90
20759;DHT22;10539;53.686;9.158;2023-03-01T07:52:22;3.40;99.90
20759;DHT22;10539;53.686;9.158;2023-03-01T07:54:47;3.50;99.90
20759;DHT22;10539;53.686;9.158;2023-03-01T07:57:13;3.50;99.90
20759;DHT22;10539;53.686;9.158;2023-03-01T07:59:39;3.60;99.90
20759;DHT22;10539;53.686;9.158;2023-03-01T08:02:05;3.70;99.90
20759;DHT22;10539;53.686;9.158;2023-03-01T08:04:32;3.70;99.90
20759;DHT22;10539;53.686;9.158;2023-03-01T08:06:58;3.70;99.90
20759;DHT22;10539;53.686;9.158;2023-03-01T08:09:24;3.80;99.90
20759;DHT22;10539;53.686;9.158;2023-03-01T08:11:50;3.90;99.90
20759;DHT22;10539;53.686;9.158;2023-03-01T08:14:16;3.90;99.90
20759;DHT22;10539;53.686;9.158;2023-03-01T08:16:42;4.00;99.90
20759;DHT22;10539;53.686;9.158;2023-03-01T08:19:10;4.00;99.90
20759;DHT22;10539;53.686;9.158;2023-03-01T08:21:37;4.10;99.90
20759;DHT22;10539;53.686;9.158;2023-03-01T08:24:05;4.10;99.90
20759;DHT22;10539;53.686;9.158;2023-03-01T08:26:31;4.20;99.90
20759;DHT22;10539;53.686;9.158;2023-03-01T08:28:57;4.20;99.90
20759;DHT22;10539;53.686;9.158;2023-03-01T08:31:42;4.20;99.90
20759;DHT22;10539;53.686;9.158;2023-03-01T08:34:11;4.30;99.90
20759;DHT22;10539;53.686;9.158;2023-03-01T08:36:39;4.30;99.90
20759;DHT22;10539;53.686;9.158;2023-03-01T08:39:06;4.30;99.90
20759;DHT22;10539;53.686;9.158;2023-03-01T08:41:32;4.30;99.90
20759;DHT22;10539;53.686;9.158;2023-03-01T08:43:58;4.20;99.90
20759;DHT22;10539;53.686;9.158;2023-03-01T08:46:30;4.20;99.90
20759;DHT22;10539;53.686;9.158;2023-03-01T08:48:56;4.20;99.90
20759;DHT22;10539;53.686;9.158;2023-03-01T08:51:23;4.10;99.90
20759;DHT22;10539;53.686;9.158;2023-03-01T08:53:49;4.10;99.90
20759;DHT22;10539;53.686;9.158;2023-03-01T08:56:16;4.20;99.90
20759;DHT22;10539;53.686;9.158;2023-03-01T08:58:47;4.20;99.90
20759;DHT22;10539;53.686;9.158;2023-03-01T09:01:16;4.30;99.90
20759;DHT22;10539;53.686;9.158;2023-03-01T09:03:43;4.30;99.90
20759;DHT22;10539;53.686;9.158;2023-03-01T09:06:10;4.30;99.90
20759;DHT22;10539;53.686;9.158;2023-03-01T09:08:37;4.30;99.90
20759;DHT22;10539;53.686;9.158;2023-03-01T09:11:05;4.40;99.90
20759;DHT22;10539;53.686;9.158;2023-03-01T09:13:32;4.40;99.90
20759;DHT22;10539;53.686;9.158;2023-03-01T09:16:00;4.40;99.90
20759;DHT22;10539;53.686;9.158;2023-03-01T09:18:26;4.40;99.90
20759;DHT22;10539;53.686;9.158;2023-03-01T09:20:51;4.50;99.90
20759;DHT22;10539;53.686;9.158;2023-03-01T09:23:17;4.50;99.90
20759;DHT22;10539;53.686;9.158;2023-03-01T09:25:43;4.60;99.90
20759;DHT22;10539;53.686;9.158;2023-03-01T09:28:09;4.60;99.90
20759;DHT22;10539;53.686;9.158;2023-03-01T09:30:36;4.70;99.90
20759;DHT22;10539;53.686;9.158;2023-03-01T09:33:02;4.80;99.90
20759;DHT22;10539;53.686;9.158;2023-03-01T09:35:27;4.80;99.90
20759;DHT22;10539;53.686;9.158;2023-03-01T09:37:53;4.80;99.90
20759;DHT22;10539;53.686;9.158;2023-03-01T09:40:22;4.70;99.90
20759;DHT22;10539;53.686;9.158;2023-03-01T09:42:54;4.70;99.90
20759;DHT22;10539;53.686;9.158;2023-03-01T09:45:34;4.80;99.90
20759;DHT22;10539;53.686;9.158;2023-03-01T09:48:02;4.90;99.90
20759;DHT22;10539;53.686;9.158;2023-03-01T09:50:35;4.90;99.90
20759;DHT22;10539;53.686;9.158;2023-03-01T09:55:39;4.80;99.90
20759;DHT22;10539;53.686;9.158;2023-03-01T10:01:01;4.70;99.90
20759;DHT22;10539;53.686;9.158;2023-03-01T10:03:48;4.70;99.90
20759;DHT22;10539;53.686;9.158;2023-03-01T10:06:21;4.80;99.90
20759;DHT22;10539;53.686;9.158;2023-03-01T10:08:56;4.90;99.90
20759;DHT22;10539;53.686;9.158;2023-03-01T10:11:28;5.00;99.90
20759;DHT22;10539;53.686;9.158;2023-03-01T10:14:06;5.10;99.90
20759;DHT22;10539;53.686;9.158;2023-03-01T10:16:54;5.20;99.90
20759;DHT22;10539;53.686;9.158;2023-03-01T10:19:44;5.30;99.90
20759;DHT22;10539;53.686;9.158;2023-03-01T10:22:22;5.30;99.90
20759;DHT22;10539;53.686;9.158;2023-03-01T10:24:51;5.20;99.90
20759;DHT22;10539;53.686;9.158;2023-03-01T10:27:24;5.20;99.90
20759;DHT22;10539;53.686;9.158;2023-03-01T10:32:27;5.40;99.90
20759;DHT22;10539;53.686;9.158;2023-03-01T10:34:53;5.50;99.90
20759;DHT22;10539;53.686;9.158;2023-03-01T10:37:20;5.50;99.90
20759;DHT22;10539;53.686;9.158;2023-03-01T10:40:08;5.50;99.90
20759;DHT22;10539;53.686;9.158;2023-03-01T10:42:38;5.60;99.90
20759;DHT22;10539;53.686;9.158;2023-03-01T10:48:06;5.70;99.90
20759;DHT22;10539;53.686;9.158;2023-03-01T10:50:36;5.70;99.90
20759;DHT22;10539;53.686;9.158;2023-03-01T10:53:04;5.60;99.90
20759;DHT22;10539;53.686;9.158;2023-03-01T10:55:34;5.50;99.90
20759;DHT22;10539;53.686;9.158;2023-03-01T10:58:21;5.40;99.90
20759;DHT22;10539;53.686;9.158;2023-03-01T11:00:53;5.40;99.90
20759;DHT22;10539;53.686;9.158;2023-03-01T11:03:35;5.50;99.90
20759;DHT22;10539;53.686;9.158;2023-03-01T11:08:43;5.60;99.90
20759;DHT22;10539;53.686;9.158;2023-03-01T11:11:30;5.60;99.90
20759;DHT22;10539;53.686;9.158;2023-03-01T11:14:17;5.60;99.90
20759;DHT22;10539;53.686;9.158;2023-03-01T11:16:48;5.70;99.90
20759;DHT22;10539;53.686;9.158;2023-03-01T11:19:20;5.70;99.90
20759;DHT22;10539;53.686;9.158;2023-03-01T11:22:02;5.80;99.90
20759;DHT22;10539;53.686;9.158;2023-03-01T11:24:50;5.80;99.90
20759;DHT22;10539;53.686;9.158;2023-03-01T11:27:26;5.80;99.90
20759;DHT22;10539;53.686;9.158;2023-03-01T11:35:32;5.80;99.90
20759;DHT22;10539;53.686;9.158;2023-03-01T11:40:35;6.00;99.90
20759;DHT22;10539;53.686;9.158;2023-03-01T11:43:28;6.10;99.90
20759;DHT22;10539;53.686;9.158;2023-03-01T11:46:12;6.20;99.90
20759;DHT22;10539;53.686;9.158;2023-03-01T12:08:37;6.90;99.90
20759;DHT22;10539;53.686;9.158;2023-03-01T12:13:56;6.80;99.90
20759;DHT22;10539;53.686;9.158;2023-03-01T12:16:40;6.70;99.90
20759;DHT22;10539;53.686;9.158;2023-03-01T12:32:28;6.90;99.90
20759;DHT22;10539;53.686;9.158;2023-03-01T12:35:22;7.00;99.90
20759;DHT22;10539;53.686;9.158;2023-03-01T12:46:57;7.40;99.90
20759;DHT22;10539;53.686;9.158;2023-03-01T12:49:30;7.60;99.90
20759;DHT22;10539;53.686;9.158;2023-03-01T12:52:14;7.70;99.90
20759;DHT22;10539;53.686;9.158;2023-03-01T12:54:41;7.70;99.90
20759;DHT22;10539;53.686;9.158;2023-03-01T12:57:37;7.60;99.90
20759;DHT22;10539;53.686;9.158;2023-03-01T13:00:35;7.50;99.90
20759;DHT22;10539;53.686;9.158;2023-03-01T13:03:25;7.40;99.90
20759;DHT22;10539;53.686;9.158;2023-03-01T13:06:42;7.30;99.90
20759;DHT22;10539;53.686;9.158;2023-03-01T13:11:44;7.50;99.90
20759;DHT22;10539;53.686;9.158;2023-03-01T13:16:54;7.30;99.90
20759;DHT22;10539;53.686;9.158;2023-03-01T13:19:29;7.30;99.90
20759;DHT22;10539;53.686;9.158;2023-03-01T13:21:57;7.30;99.90
20759;DHT22;10539;53.686;9.158;2023-03-01T13:24:38;7.30;99.90
20759;DHT22;10539;53.686;9.158;2023-03-01T13:29:47;7.30;99.90
20759;DHT22;10539;53.686;9.158;2023-03-01T13:35:40;7.40;99.90
20759;DHT22;10539;53.686;9.158;2023-03-01T13:37:47;7.40;99.90
20759;DHT22;10539;53.686;9.158;2023-03-01T13:42:45;7.40;99.90
20759;DHT22;10539;53.686;9.158;2023-03-01T13:45:39;7.40;99.90
20759;DHT22;10539;53.686;9.158;2023-03-01T13:48:18;7.40;99.90
20759;DHT22;10539;53.686;9.158;2023-03-01T13:50:53;7.30;99.90
20759;DHT22;10539;53.686;9.158;2023-03-01T13:53:23;7.30;99.90
20759;DHT22;10539;53.686;9.158;2023-03-01T13:55:55;7.30;99.90
20759;DHT22;10539;53.686;9.158;2023-03-01T13:58:32;7.30;99.90
20759;DHT22;10539;53.686;9.158;2023-03-01T14:01:04;7.30;99.90
20759;DHT22;10539;53.686;9.158;2023-03-01T14:03:32;7.30;99.90
20759;DHT22;10539;53.686;9.158;2023-03-01T14:06:08;7.30;99.90
20759;DHT22;10539;53.686;9.158;2023-03-01T14:08:36;7.20;99.90
20759;DHT22;10539;53.686;9.158;2023-03-01T14:11:42;7.20;99.90
20759;DHT22;10539;53.686;9.158;2023-03-01T14:14:33;7.10;99.90
20759;DHT22;10539;53.686;9.158;2023-03-01T14:19:58;7.00;99.90
20759;DHT22;10539;53.686;9.158;2023-03-01T14:22:34;7.00;99.90
20759;DHT22;10539;53.686;9.158;2023-03-01T14:25:04;7.00;99.90
20759;DHT22;10539;53.686;9.158;2023-03-01T14:27:40;7.00;99.90
20759;DHT22;10539;53.686;9.158;2023-03-01T14:32:58;7.00;99.90
20759;DHT22;10539;53.686;9.158;2023-03-01T14:35:27;7.00;99.90
20759;DHT22;10539;53.686;9.158;2023-03-01T14:37:53;6.90;99.90
20759;DHT22;10539;53.686;9.158;2023-03-01T14:42:50;6.70;99.90
20759;DHT22;10539;53.686;9.158;2023-03-01T14:45:16;6.70;99.90
20759;DHT22;10539;53.686;9.158;2023-03-01T14:47:44;6.60;99.90
20759;DHT22;10539;53.686;9.158;2023-03-01T14:50:24;6.60;99.90
20759;DHT22;10539;53.686;9.158;2023-03-01T14:52:54;6.50;99.90
20759;DHT22;10539;53.686;9.158;2023-03-01T14:55:26;6.50;99.90
20759;DHT22;10539;53.686;9.158;2023-03-01T14:57:53;6.50;99.90
20759;DHT22;10539;53.686;9.158;2023-03-01T15:00:24;6.50;99.90
20759;DHT22;10539;53.686;9.158;2023-03-01T15:02:52;6.60;99.90
20759;DHT22;10539;53.686;9.158;2023-03-01T15:05:31;6.60;99.90
20759;DHT22;10539;53.686;9.158;2023-03-01T15:07:58;6.60;99.90
20759;DHT22;10539;53.686;9.158;2023-03-01T15:10:31;6.50;99.90
20759;DHT22;10539;53.686;9.158;2023-03-01T15:13:52;6.40;99.90
20759;DHT22;10539;53.686;9.158;2023-03-01T15:16:11;6.30;99.90
20759;DHT22;10539;53.686;9.158;2023-03-01T15:18:42;6.30;99.90
20759;DHT22;10539;53.686;9.158;2023-03-01T15:21:29;6.30;99.90
20759;DHT22;10539;53.686;9.158;2023-03-01T15:24:17;6.20;99.90
20759;DHT22;10539;53.686;9.158;2023-03-01T15:26:57;6.30;99.90
20759;DHT22;10539;53.686;9.158;2023-03-01T15:29:25;6.30;99.90
20759;DHT22;10539;53.686;9.158;2023-03-01T15:32:00;6.30;99.90
20759;DHT22;10539;53.686;9.158;2023-03-01T15:34:34;6.10;99.90
20759;DHT22;10539;53.686;9.158;2023-03-01T15:37:02;6.20;99.90
20759;DHT22;10539;53.686;9.158;2023-03-01T15:39:42;6.20;99.90
20759;DHT22;10539;53.686;9.158;2023-03-01T15:47:36;6.00;99.90
20759;DHT22;10539;53.686;9.158;2023-03-01T15:50:04;5.90;99.90
20759;DHT22;10539;53.686;9.158;2023-03-01T15:52:36;5.90;99.90
20759;DHT22;10539;53.686;9.158;2023-03-01T15:55:13;5.80;99.90
20759;DHT22;10539;53.686;9.158;2023-03-01T15:57:40;5.80;99.90
20759;DHT22;10539;53.686;9.158;2023-03-01T16:00:08;5.70;99.90
20759;DHT22;10539;53.686;9.158;2023-03-01T16:02:37;5.70;99.90
20759;DHT22;10539;53.686;9.158;2023-03-01T16:05:04;5.70;99.90
20759;DHT22;10539;53.686;9.158;2023-03-01T16:07:29;5.60;99.90
20759;DHT22;10539;53.686;9.158;2023-03-01T16:09:57;5.60;99.90
20759;DHT22;10539;53.686;9.158;2023-03-01T16:12:23;5.60;99.90
20759;DHT22;10539;53.686;9.158;2023-03-01T16:14:50;5.60;99.90
20759;DHT22;10539;53.686;9.158;2023-03-01T16:17:15;5.40;99.90
20759;DHT22;10539;53.686;9.158;2023-03-01T16:19:41;5.40;99.90
20759;DHT22;10539;53.686;9.158;2023-03-01T16:22:10;5.30;99.90
20759;DHT22;10539;53.686;9.158;2023-03-01T16:24:36;5.30;99.90
20759;DHT22;10539;53.686;9.158;2023-03-01T16:27:02;5.30;99.90
20759;DHT22;10539;53.686;9.158;2023-03-01T16:29:29;5.20;99.90
20759;DHT22;10539;53.686;9.158;2023-03-01T16:31:55;5.20;99.90
20759;DHT22;10539;53.686;9.158;2023-03-01T16:34:21;5.20;99.90
20759;DHT22;10539;53.686;9.158;2023-03-01T16:36:47;5.20;99.90
20759;DHT22;10539;53.686;9.158;2023-03-01T16:39:13;5.10;99.90
20759;DHT22;10539;53.686;9.158;2023-03-01T16:41:38;5.10;99.90
20759;DHT22;10539;53.686;9.158;2023-03-01T16:44:04;5.00;99.90
20759;DHT22;10539;53.686;9.158;2023-03-01T16:46:30;5.00;99.90
20759;DHT22;10539;53.686;9.158;2023-03-01T16:48:56;5.10;99.90
20759;DHT22;10539;53.686;9.158;2023-03-01T16:51:23;5.10;99.90
20759;DHT22;10539;53.686;9.158;2023-03-01T16:53:49;5.00;99.90
20759;DHT22;10539;53.686;9.158;2023-03-01T16:56:16;4.90;99.90
20759;DHT22;10539;53.686;9.158;2023-03-01T16:58:43;4.80;99.90
20759;DHT22;10539;53.686;9.158;2023-03-01T17:01:17;4.90;99.90
20759;DHT22;10539;53.686;9.158;2023-03-01T17:03:44;4.90;99.90
20759;DHT22;10539;53.686;9.158;2023-03-01T17:06:15;4.80;99.90
20759;DHT22;10539;53.686;9.158;2023-03-01T17:08:41;4.80;99.90
20759;DHT22;10539;53.686;9.158;2023-03-01T17:11:09;4.70;99.90
20759;DHT22;10539;53.686;9.158;2023-03-01T17:13:37;4.80;99.90
20759;DHT22;10539;53.686;9.158;2023-03-01T17:16:08;4.80;99.90
20759;DHT22;10539;53.686;9.158;2023-03-01T17:18:34;4.80;99.90
20759;DHT22;10539;53.686;9.158;2023-03-01T17:21:00;4.80;99.90
20759;DHT22;10539;53.686;9.158;2023-03-01T17:23:28;4.80;99.90
20759;DHT22;10539;53.686;9.158;2023-03-01T17:25:54;4.90;99.90
20759;DHT22;10539;53.686;9.158;2023-03-01T17:28:27;4.90;99.90
20759;DHT22;10539;53.686;9.158;2023-03-01T17:30:54;4.90;99.90
20759;DHT22;10539;53.686;9.158;2023-03-01T17:33:20;4.90;99.90
20759;DHT22;10539;53.686;9.158;2023-03-01T17:35:46;4.90;99.90
20759;DHT22;10539;53.686;9.158;2023-03-01T17:38:14;4.80;99.90
20759;DHT22;10539;53.686;9.158;2023-03-01T17:40:40;4.80;99.90
20759;DHT22;10539;53.686;9.158;2023-03-01T17:43:07;4.80;99.90
20759;DHT22;10539;53.686;9.158;2023-03-01T17:45:36;4.80;99.90
20759;DHT22;10539;53.686;9.158;2023-03-01T17:48:03;4.80;99.90